Daytona Beach, Florida
Current Conditions -  °F | °C
As of 12:53 AM on Friday 28 Nov 2014 (Local Time) from KDAB Reporting Station
Clear Clear  
Wind Chill: 45°   Ceiling: Unl
Heat Index: 49°   Visibility: 10mi
Dew Point: 34°   Wind: 10mph
Humidity: 56%   Direction: 330°NNW
Pressure: 30.29"   Gusts: NA
Location:  29.2°N, 81.04°W
Report Text: KDAB 280553Z 33009KT 10SM CLR 09/01 A3029 RMK AO2 SLP254 T00940011 10133 20089 58002
Loading
Personal Weather Stations






























Interactive Weather Map New forecast layout! Learn more

10-Day Weather Forecast

Advertisements
Track Severe Weather on mobile